LGL3752 LPPT-ELLX
Flight info
| Callsign | LGL3752 |
|---|---|
| Flight time | 2h 18m |
| Altitude | 36000 |
| Route | IXIDA DCT TOSDI DCT ZMR DCT NUBLO/N0444F380 DCT RONSI DCT DELOG DCT PEXOD DCT DIDIG DCT TIRAV DCT ERJAZ DCT PIWIZ DCT TSU UM163 LEQOS DCT CTL DCT MMD |
| Aircraft | B738/M-SDE2E3FGHIRWXY/LB1 |
Departure
| Time | 2026-04-29 11:02 |
|---|---|
| Airport | Lisbon Humberto Delgado Airport (LPPT) |
Arrival
| Time | 2026-04-29 13:20 |
|---|---|
| Airport | Luxembourg-Findel International Airport (ELLX) |
| Time | Latitude | Longitude | Altitude | Speed | Heading |
|---|---|---|---|---|---|
| 2026-04-29 10:12 | 38.76891 | -9.13057 | 336 ft | 0 kts | 78° |
| 2026-04-29 10:48 | 38.76890 | -9.13059 | 336 ft | 2 kts | 78° |
| 2026-04-29 10:48 | 38.76885 | -9.13091 | 333 ft | 4 kts | 77° |
| 2026-04-29 10:48 | 38.76875 | -9.13121 | 333 ft | 4 kts | 38° |
| 2026-04-29 10:49 | 38.76853 | -9.13131 | 335 ft | 3 kts | 351° |
| 2026-04-29 10:49 | 38.76849 | -9.13131 | 335 ft | 0 kts | 348° |
| 2026-04-29 10:51 | 38.76852 | -9.13131 | 335 ft | 2 kts | 348° |
| 2026-04-29 10:52 | 38.76906 | -9.13146 | 336 ft | 11 kts | 348° |
| 2026-04-29 10:52 | 38.76998 | -9.13171 | 337 ft | 16 kts | 348° |
| 2026-04-29 10:52 | 38.77108 | -9.13199 | 337 ft | 16 kts | 347° |
| 2026-04-29 10:52 | 38.77215 | -9.13228 | 333 ft | 15 kts | 349° |
| 2026-04-29 10:53 | 38.77318 | -9.13254 | 337 ft | 15 kts | 349° |
| 2026-04-29 10:53 | 38.77417 | -9.13277 | 337 ft | 14 kts | 350° |
| 2026-04-29 10:53 | 38.77510 | -9.13300 | 337 ft | 14 kts | 348° |
| 2026-04-29 10:53 | 38.77601 | -9.13320 | 337 ft | 13 kts | 353° |
| 2026-04-29 10:54 | 38.77690 | -9.13328 | 337 ft | 13 kts | 352° |
| 2026-04-29 10:54 | 38.77775 | -9.13349 | 349 ft | 12 kts | 348° |
| 2026-04-29 10:54 | 38.77858 | -9.13371 | 347 ft | 12 kts | 348° |
| 2026-04-29 10:54 | 38.77937 | -9.13393 | 351 ft | 12 kts | 348° |
| 2026-04-29 10:55 | 38.78016 | -9.13414 | 356 ft | 11 kts | 347° |
| 2026-04-29 10:55 | 38.78076 | -9.13430 | 365 ft | 8 kts | 348° |
| 2026-04-29 10:55 | 38.78126 | -9.13443 | 365 ft | 7 kts | 349° |
| 2026-04-29 10:55 | 38.78175 | -9.13457 | 362 ft | 7 kts | 348° |
| 2026-04-29 10:56 | 38.78224 | -9.13470 | 369 ft | 8 kts | 347° |
| 2026-04-29 10:56 | 38.78303 | -9.13491 | 365 ft | 17 kts | 348° |
| 2026-04-29 10:56 | 38.78440 | -9.13529 | 368 ft | 21 kts | 347° |
| 2026-04-29 10:56 | 38.78578 | -9.13566 | 371 ft | 20 kts | 349° |
| 2026-04-29 10:57 | 38.78712 | -9.13531 | 366 ft | 21 kts | 24° |
| 2026-04-29 10:57 | 38.78861 | -9.13450 | 358 ft | 26 kts | 22° |
| 2026-04-29 10:57 | 38.79051 | -9.13348 | 350 ft | 33 kts | 22° |
| 2026-04-29 10:57 | 38.79264 | -9.13236 | 348 ft | 32 kts | 22° |
| 2026-04-29 10:58 | 38.79461 | -9.13128 | 359 ft | 29 kts | 22° |
| 2026-04-29 10:58 | 38.79644 | -9.13033 | 362 ft | 27 kts | 24° |
| 2026-04-29 10:58 | 38.79762 | -9.12963 | 359 ft | 16 kts | 40° |
| 2026-04-29 10:58 | 38.79761 | -9.12867 | 359 ft | 7 kts | 113° |
| 2026-04-29 10:59 | 38.79759 | -9.12861 | 357 ft | 0 kts | 112° |
| 2026-04-29 11:00 | 38.79754 | -9.12846 | 358 ft | 4 kts | 114° |
| 2026-04-29 11:00 | 38.79727 | -9.12781 | 355 ft | 11 kts | 122° |
| 2026-04-29 11:00 | 38.79696 | -9.12760 | 355 ft | 1 kts | 192° |
| 2026-04-29 11:01 | 38.79682 | -9.12766 | 352 ft | 4 kts | 199° |
| 2026-04-29 11:01 | 38.79676 | -9.12769 | 354 ft | 0 kts | 200° |
| 2026-04-29 11:01 | 38.79664 | -9.12774 | 353 ft | 15 kts | 201° |
| 2026-04-29 11:01 | 38.79334 | -9.12950 | 357 ft | 86 kts | 202° |
| 2026-04-29 11:02 | 38.78588 | -9.13351 | 364 ft | 144 kts | 203° |
| 2026-04-29 11:02 | 38.77560 | -9.13924 | 678 ft | 170 kts | 207° |
| 2026-04-29 11:02 | 38.76401 | -9.14598 | 1154 ft | 189 kts | 207° |
| 2026-04-29 11:02 | 38.75298 | -9.15257 | 2307 ft | 160 kts | 207° |
| 2026-04-29 11:03 | 38.74254 | -9.15825 | 2664 ft | 169 kts | 205° |
| 2026-04-29 11:03 | 38.73126 | -9.16386 | 2987 ft | 176 kts | 204° |
| 2026-04-29 11:03 | 38.71990 | -9.16957 | 3489 ft | 178 kts | 204° |
| 2026-04-29 11:03 | 38.70806 | -9.17570 | 4009 ft | 194 kts | 204° |
| 2026-04-29 11:04 | 38.69494 | -9.18231 | 4323 ft | 210 kts | 203° |
| 2026-04-29 11:04 | 38.68075 | -9.18928 | 4547 ft | 232 kts | 203° |
| 2026-04-29 11:04 | 38.66560 | -9.19850 | 4937 ft | 253 kts | 220° |
| 2026-04-29 11:04 | 38.65546 | -9.21675 | 5755 ft | 257 kts | 247° |
| 2026-04-29 11:05 | 38.65233 | -9.23954 | 6591 ft | 264 kts | 269° |
| 2026-04-29 11:05 | 38.65611 | -9.26289 | 7303 ft | 274 kts | 288° |
| 2026-04-29 11:05 | 38.66353 | -9.28552 | 8034 ft | 279 kts | 295° |
| 2026-04-29 11:05 | 38.67634 | -9.30460 | 8713 ft | 292 kts | 324° |
| 2026-04-29 11:06 | 38.69544 | -9.31402 | 9468 ft | 302 kts | 351° |
| 2026-04-29 11:06 | 38.71626 | -9.31116 | 9819 ft | 307 kts | 22° |
| 2026-04-29 11:06 | 38.73487 | -9.29734 | 9882 ft | 312 kts | 34° |
| 2026-04-29 11:06 | 38.75266 | -9.28156 | 9874 ft | 310 kts | 36° |
| 2026-04-29 11:07 | 38.76452 | -9.27091 | 9883 ft | 307 kts | 36° |
| 2026-04-29 11:07 | 38.78195 | -9.25543 | 9849 ft | 303 kts | 36° |
| 2026-04-29 11:07 | 38.79922 | -9.24040 | 9861 ft | 305 kts | 35° |
| 2026-04-29 11:07 | 38.81687 | -9.22521 | 9863 ft | 306 kts | 35° |
| 2026-04-29 11:08 | 38.83464 | -9.21000 | 9855 ft | 308 kts | 34° |
| 2026-04-29 11:08 | 38.85246 | -9.19412 | 10019 ft | 321 kts | 41° |
| 2026-04-29 11:08 | 38.86887 | -9.17350 | 10228 ft | 340 kts | 49° |
| 2026-04-29 11:08 | 38.88473 | -9.15033 | 10719 ft | 349 kts | 51° |
| 2026-04-29 11:09 | 38.90059 | -9.12645 | 11369 ft | 354 kts | 51° |
| 2026-04-29 11:09 | 38.91666 | -9.10237 | 12096 ft | 356 kts | 50° |
| 2026-04-29 11:09 | 38.93298 | -9.07816 | 12755 ft | 363 kts | 50° |
| 2026-04-29 11:09 | 38.94980 | -9.05347 | 13350 ft | 371 kts | 50° |
| 2026-04-29 11:10 | 38.96695 | -9.02851 | 14066 ft | 374 kts | 50° |
| 2026-04-29 11:10 | 38.98424 | -9.00343 | 14776 ft | 377 kts | 49° |
| 2026-04-29 11:10 | 39.00174 | -8.97810 | 15456 ft | 381 kts | 49° |
| 2026-04-29 11:10 | 39.01935 | -8.95263 | 16250 ft | 380 kts | 49° |
| 2026-04-29 11:11 | 39.03692 | -8.92719 | 17010 ft | 382 kts | 49° |
| 2026-04-29 11:11 | 39.05471 | -8.90140 | 17628 ft | 388 kts | 49° |
| 2026-04-29 11:11 | 39.07273 | -8.87526 | 18251 ft | 393 kts | 49° |
| 2026-04-29 11:11 | 39.09094 | -8.84882 | 18813 ft | 397 kts | 49° |
| 2026-04-29 11:12 | 39.10935 | -8.82206 | 19352 ft | 402 kts | 49° |
| 2026-04-29 11:12 | 39.12798 | -8.79497 | 19876 ft | 406 kts | 49° |
| 2026-04-29 11:12 | 39.14684 | -8.76753 | 20413 ft | 411 kts | 49° |
| 2026-04-29 11:12 | 39.16587 | -8.73981 | 20944 ft | 415 kts | 49° |
| 2026-04-29 11:13 | 39.18511 | -8.71173 | 21424 ft | 421 kts | 49° |
| 2026-04-29 11:13 | 39.20465 | -8.68317 | 21848 ft | 428 kts | 49° |
| 2026-04-29 11:13 | 39.22440 | -8.65425 | 22386 ft | 432 kts | 49° |
| 2026-04-29 11:13 | 39.24430 | -8.62508 | 22949 ft | 435 kts | 49° |
| 2026-04-29 11:14 | 39.26436 | -8.59565 | 23456 ft | 438 kts | 49° |
| 2026-04-29 11:14 | 39.28437 | -8.56627 | 24117 ft | 434 kts | 49° |
| 2026-04-29 11:14 | 39.30436 | -8.53689 | 24522 ft | 438 kts | 49° |
| 2026-04-29 11:14 | 39.32464 | -8.50706 | 24810 ft | 445 kts | 49° |
| 2026-04-29 11:15 | 39.34515 | -8.47687 | 25189 ft | 449 kts | 49° |
| 2026-04-29 11:15 | 39.36581 | -8.44643 | 25632 ft | 452 kts | 49° |
| 2026-04-29 11:15 | 39.38658 | -8.41579 | 26026 ft | 455 kts | 49° |
| 2026-04-29 11:15 | 39.40751 | -8.38488 | 26389 ft | 459 kts | 49° |
| 2026-04-29 11:16 | 39.42861 | -8.35370 | 26739 ft | 462 kts | 49° |
| 2026-04-29 11:16 | 39.44984 | -8.32228 | 27068 ft | 466 kts | 49° |
| 2026-04-29 11:16 | 39.47126 | -8.29055 | 27396 ft | 470 kts | 49° |
| 2026-04-29 11:16 | 39.49282 | -8.25858 | 27743 ft | 473 kts | 49° |
| 2026-04-29 11:17 | 39.51453 | -8.22635 | 28109 ft | 477 kts | 49° |
| 2026-04-29 11:17 | 39.53624 | -8.19412 | 28729 ft | 473 kts | 49° |
| 2026-04-29 11:17 | 39.55784 | -8.16199 | 29183 ft | 474 kts | 49° |
| 2026-04-29 11:17 | 39.57958 | -8.12960 | 29435 ft | 479 kts | 49° |
| 2026-04-29 11:18 | 39.60154 | -8.09685 | 29697 ft | 483 kts | 49° |
| 2026-04-29 11:18 | 39.62364 | -8.06388 | 29999 ft | 485 kts | 49° |
| 2026-04-29 11:18 | 39.64552 | -8.03122 | 30282 ft | 487 kts | 49° |
| 2026-04-29 11:18 | 39.66808 | -7.99837 | 30569 ft | 488 kts | 46° |
| 2026-04-29 11:19 | 39.69228 | -7.96657 | 30914 ft | 488 kts | 44° |
| 2026-04-29 11:19 | 39.71647 | -7.93654 | 31311 ft | 487 kts | 43° |
| 2026-04-29 11:19 | 39.74108 | -7.90654 | 31722 ft | 485 kts | 42° |
| 2026-04-29 11:19 | 39.76565 | -7.87655 | 32092 ft | 484 kts | 43° |
| 2026-04-29 11:20 | 39.78990 | -7.84663 | 32654 ft | 478 kts | 43° |
| 2026-04-29 11:20 | 39.81382 | -7.81680 | 33070 ft | 476 kts | 43° |
| 2026-04-29 11:20 | 39.83771 | -7.78678 | 33308 ft | 478 kts | 44° |
| 2026-04-29 11:20 | 39.86164 | -7.75652 | 33501 ft | 481 kts | 44° |
| 2026-04-29 11:21 | 39.88553 | -7.72621 | 33898 ft | 478 kts | 44° |
| 2026-04-29 11:21 | 39.90926 | -7.69604 | 34231 ft | 476 kts | 44° |
| 2026-04-29 11:21 | 39.93300 | -7.66584 | 34455 ft | 477 kts | 44° |
| 2026-04-29 11:21 | 39.95677 | -7.63558 | 34663 ft | 478 kts | 43° |
| 2026-04-29 11:22 | 39.98054 | -7.60530 | 34939 ft | 477 kts | 43° |
| 2026-04-29 11:22 | 40.00425 | -7.57507 | 35211 ft | 477 kts | 44° |
| 2026-04-29 11:22 | 40.02793 | -7.54487 | 35518 ft | 475 kts | 44° |
| 2026-04-29 11:22 | 40.05149 | -7.51477 | 35837 ft | 474 kts | 44° |
| 2026-04-29 11:23 | 40.07515 | -7.48453 | 35819 ft | 479 kts | 44° |
| 2026-04-29 11:23 | 40.12281 | -7.42351 | 35847 ft | 479 kts | 44° |
| 2026-04-29 11:24 | 40.17001 | -7.36295 | 35840 ft | 472 kts | 44° |
| 2026-04-29 11:24 | 40.21679 | -7.30280 | 35857 ft | 471 kts | 44° |
| 2026-04-29 11:25 | 40.26354 | -7.24258 | 35865 ft | 472 kts | 44° |
| 2026-04-29 11:25 | 40.31030 | -7.18222 | 35853 ft | 472 kts | 44° |
| 2026-04-29 11:26 | 40.38042 | -7.09145 | 35854 ft | 472 kts | 44° |
| 2026-04-29 11:26 | 40.42715 | -7.03082 | 35851 ft | 473 kts | 45° |
| 2026-04-29 11:27 | 40.47386 | -6.97008 | 35848 ft | 473 kts | 45° |
| 2026-04-29 11:27 | 40.52025 | -6.90963 | 35851 ft | 473 kts | 45° |
| 2026-04-29 11:28 | 40.56726 | -6.84824 | 35842 ft | 473 kts | 45° |
| 2026-04-29 11:28 | 40.61396 | -6.78714 | 35844 ft | 473 kts | 45° |
| 2026-04-29 11:29 | 40.66030 | -6.72638 | 35848 ft | 473 kts | 45° |
| 2026-04-29 11:29 | 40.70695 | -6.66508 | 35846 ft | 474 kts | 45° |
| 2026-04-29 11:30 | 40.75357 | -6.60369 | 35852 ft | 474 kts | 45° |
| 2026-04-29 11:30 | 40.80022 | -6.54214 | 35848 ft | 474 kts | 45° |
| 2026-04-29 11:31 | 40.84683 | -6.48052 | 35846 ft | 474 kts | 45° |
| 2026-04-29 11:31 | 40.89343 | -6.41875 | 35843 ft | 474 kts | 45° |
| 2026-04-29 11:32 | 40.93993 | -6.35700 | 35847 ft | 474 kts | 45° |
| 2026-04-29 11:32 | 40.98648 | -6.29507 | 35856 ft | 474 kts | 45° |
| 2026-04-29 11:33 | 41.03461 | -6.23532 | 35846 ft | 474 kts | 42° |
| 2026-04-29 11:33 | 41.08395 | -6.17739 | 35845 ft | 473 kts | 41° |
| 2026-04-29 11:34 | 41.13306 | -6.11938 | 35850 ft | 473 kts | 42° |
| 2026-04-29 11:34 | 41.18187 | -6.06105 | 35840 ft | 472 kts | 42° |
| 2026-04-29 11:35 | 41.23047 | -6.00263 | 35849 ft | 471 kts | 43° |
| 2026-04-29 11:35 | 41.27896 | -5.94423 | 35843 ft | 470 kts | 43° |
| 2026-04-29 11:36 | 41.32733 | -5.88587 | 35847 ft | 469 kts | 43° |
| 2026-04-29 11:36 | 41.37527 | -5.82792 | 35844 ft | 468 kts | 43° |
| 2026-04-29 11:37 | 41.42345 | -5.76955 | 35859 ft | 468 kts | 43° |
| 2026-04-29 11:37 | 41.47156 | -5.71114 | 35844 ft | 468 kts | 43° |
| 2026-04-29 11:38 | 41.52010 | -5.65351 | 35834 ft | 467 kts | 37° |
| 2026-04-29 11:38 | 41.57676 | -5.61159 | 35854 ft | 467 kts | 22° |
| 2026-04-29 11:39 | 41.63684 | -5.57865 | 35847 ft | 467 kts | 22° |
| 2026-04-29 11:39 | 41.69692 | -5.54568 | 35846 ft | 467 kts | 22° |
| 2026-04-29 11:40 | 41.75683 | -5.51210 | 35846 ft | 467 kts | 23° |
| 2026-04-29 11:40 | 41.81664 | -5.47821 | 35846 ft | 467 kts | 23° |
| 2026-04-29 11:41 | 41.87640 | -5.44422 | 35856 ft | 467 kts | 23° |
| 2026-04-29 11:41 | 41.93618 | -5.41017 | 35843 ft | 467 kts | 23° |
| 2026-04-29 11:42 | 41.99597 | -5.37607 | 35843 ft | 467 kts | 23° |
| 2026-04-29 11:42 | 42.05577 | -5.34189 | 35838 ft | 467 kts | 23° |
| 2026-04-29 11:43 | 42.11551 | -5.30768 | 35841 ft | 467 kts | 23° |
| 2026-04-29 11:43 | 42.17486 | -5.27361 | 35848 ft | 467 kts | 23° |
| 2026-04-29 11:44 | 42.23460 | -5.23926 | 35848 ft | 467 kts | 23° |
| 2026-04-29 11:44 | 42.29441 | -5.20479 | 35848 ft | 468 kts | 24° |
| 2026-04-29 11:45 | 42.35427 | -5.17022 | 35844 ft | 468 kts | 24° |
| 2026-04-29 11:45 | 42.41416 | -5.13556 | 35845 ft | 468 kts | 24° |
| 2026-04-29 11:46 | 42.47408 | -5.10082 | 35841 ft | 469 kts | 24° |
| 2026-04-29 11:46 | 42.53405 | -5.06596 | 35846 ft | 469 kts | 24° |
| 2026-04-29 11:47 | 42.59404 | -5.03102 | 35846 ft | 469 kts | 24° |
| 2026-04-29 11:47 | 42.65409 | -4.99599 | 35847 ft | 470 kts | 24° |
| 2026-04-29 11:48 | 42.71416 | -4.96087 | 35846 ft | 470 kts | 24° |
| 2026-04-29 11:48 | 42.77424 | -4.92568 | 35840 ft | 470 kts | 24° |
| 2026-04-29 11:49 | 42.83394 | -4.89063 | 35848 ft | 471 kts | 24° |
| 2026-04-29 11:49 | 42.89419 | -4.85517 | 35847 ft | 472 kts | 24° |
| 2026-04-29 11:50 | 42.95447 | -4.81963 | 35847 ft | 473 kts | 24° |
| 2026-04-29 11:50 | 43.01488 | -4.78392 | 35843 ft | 473 kts | 24° |
| 2026-04-29 11:51 | 43.07528 | -4.74815 | 35856 ft | 473 kts | 24° |
| 2026-04-29 11:51 | 43.13575 | -4.71226 | 35860 ft | 474 kts | 24° |
| 2026-04-29 11:52 | 43.19621 | -4.67630 | 35856 ft | 474 kts | 24° |
| 2026-04-29 11:52 | 43.25675 | -4.64020 | 35846 ft | 474 kts | 24° |
| 2026-04-29 11:53 | 43.31725 | -4.60406 | 35843 ft | 475 kts | 24° |
| 2026-04-29 11:53 | 43.37777 | -4.56782 | 35833 ft | 474 kts | 24° |
| 2026-04-29 11:54 | 43.42794 | -4.53772 | 35845 ft | 473 kts | 24° |
| 2026-04-29 11:54 | 43.48824 | -4.50148 | 35854 ft | 473 kts | 24° |
| 2026-04-29 11:55 | 43.54858 | -4.46516 | 35861 ft | 473 kts | 24° |
| 2026-04-29 11:55 | 43.60896 | -4.42875 | 35852 ft | 474 kts | 24° |
| 2026-04-29 11:56 | 43.66936 | -4.39223 | 35851 ft | 474 kts | 24° |
| 2026-04-29 11:56 | 43.72988 | -4.35555 | 35850 ft | 475 kts | 24° |
| 2026-04-29 11:57 | 43.79047 | -4.31875 | 35853 ft | 476 kts | 24° |
| 2026-04-29 11:57 | 43.85123 | -4.28177 | 35850 ft | 477 kts | 24° |
| 2026-04-29 11:58 | 43.91206 | -4.24466 | 35845 ft | 478 kts | 24° |
| 2026-04-29 11:58 | 43.97295 | -4.20743 | 35848 ft | 479 kts | 24° |
| 2026-04-29 11:59 | 44.03394 | -4.17006 | 35844 ft | 479 kts | 24° |
| 2026-04-29 11:59 | 44.09496 | -4.13258 | 35847 ft | 480 kts | 24° |
| 2026-04-29 12:00 | 44.15602 | -4.09499 | 35854 ft | 480 kts | 24° |
| 2026-04-29 12:00 | 44.21711 | -4.05729 | 35852 ft | 480 kts | 24° |
| 2026-04-29 12:01 | 44.27817 | -4.01952 | 35851 ft | 480 kts | 24° |
| 2026-04-29 12:01 | 44.33873 | -3.98013 | 35835 ft | 480 kts | 32° |
| 2026-04-29 12:02 | 44.39393 | -3.92822 | 35850 ft | 478 kts | 37° |
| 2026-04-29 12:02 | 44.44812 | -3.87427 | 35850 ft | 478 kts | 37° |
| 2026-04-29 12:03 | 44.50252 | -3.82073 | 35844 ft | 478 kts | 36° |
| 2026-04-29 12:03 | 44.55716 | -3.76758 | 35854 ft | 478 kts | 36° |
| 2026-04-29 12:04 | 44.61144 | -3.71490 | 35853 ft | 478 kts | 36° |
| 2026-04-29 12:04 | 44.66612 | -3.66170 | 35854 ft | 478 kts | 36° |
| 2026-04-29 12:05 | 44.72079 | -3.60835 | 35859 ft | 478 kts | 36° |
| 2026-04-29 12:05 | 44.77540 | -3.55491 | 35858 ft | 479 kts | 36° |
| 2026-04-29 12:06 | 44.83012 | -3.50124 | 35859 ft | 479 kts | 36° |
| 2026-04-29 12:06 | 44.88478 | -3.44750 | 35857 ft | 479 kts | 36° |
| 2026-04-29 12:07 | 44.93946 | -3.39362 | 35850 ft | 479 kts | 37° |
| 2026-04-29 12:07 | 44.99411 | -3.33964 | 35863 ft | 480 kts | 36° |
| 2026-04-29 12:08 | 45.04876 | -3.28552 | 35867 ft | 480 kts | 36° |
| 2026-04-29 12:08 | 45.10345 | -3.23124 | 35866 ft | 480 kts | 36° |
| 2026-04-29 12:09 | 45.15818 | -3.17679 | 35881 ft | 481 kts | 36° |
| 2026-04-29 12:09 | 45.21291 | -3.12222 | 35874 ft | 481 kts | 36° |
| 2026-04-29 12:10 | 45.26766 | -3.06747 | 35859 ft | 481 kts | 37° |
| 2026-04-29 12:10 | 45.32232 | -3.01269 | 35878 ft | 481 kts | 37° |
| 2026-04-29 12:11 | 45.37663 | -2.95714 | 35889 ft | 481 kts | 37° |
| 2026-04-29 12:11 | 45.43071 | -2.90111 | 35890 ft | 481 kts | 37° |
| 2026-04-29 12:12 | 45.48483 | -2.84498 | 35891 ft | 481 kts | 37° |
| 2026-04-29 12:12 | 45.53893 | -2.78886 | 35898 ft | 481 kts | 37° |
| 2026-04-29 12:13 | 45.59302 | -2.73266 | 35897 ft | 481 kts | 37° |
| 2026-04-29 12:13 | 45.64701 | -2.67642 | 35891 ft | 480 kts | 37° |
| 2026-04-29 12:14 | 45.70092 | -2.62011 | 35905 ft | 480 kts | 37° |
| 2026-04-29 12:14 | 45.75477 | -2.56374 | 35916 ft | 479 kts | 37° |
| 2026-04-29 12:15 | 45.80852 | -2.50732 | 35913 ft | 479 kts | 37° |
| 2026-04-29 12:15 | 45.86223 | -2.45081 | 35911 ft | 479 kts | 37° |
| 2026-04-29 12:16 | 45.91588 | -2.39423 | 35914 ft | 478 kts | 37° |
| 2026-04-29 12:16 | 45.96942 | -2.33761 | 35912 ft | 478 kts | 37° |
| 2026-04-29 12:17 | 46.02290 | -2.28094 | 35921 ft | 477 kts | 37° |
| 2026-04-29 12:17 | 46.07369 | -2.21987 | 35923 ft | 475 kts | 48° |
| 2026-04-29 12:18 | 46.11834 | -2.14983 | 35924 ft | 475 kts | 50° |
| 2026-04-29 12:18 | 46.16265 | -2.07910 | 35933 ft | 475 kts | 50° |
| 2026-04-29 12:19 | 46.20738 | -2.00872 | 35923 ft | 476 kts | 49° |
| 2026-04-29 12:19 | 46.25237 | -1.93845 | 35919 ft | 477 kts | 49° |
| 2026-04-29 12:20 | 46.29707 | -1.86855 | 35929 ft | 477 kts | 49° |
| 2026-04-29 12:20 | 46.34205 | -1.79799 | 35938 ft | 477 kts | 49° |
| 2026-04-29 12:21 | 46.38702 | -1.72720 | 35942 ft | 478 kts | 49° |
| 2026-04-29 12:21 | 46.43198 | -1.65626 | 35944 ft | 478 kts | 49° |
| 2026-04-29 12:22 | 46.47698 | -1.58505 | 35920 ft | 479 kts | 49° |
| 2026-04-29 12:22 | 46.52185 | -1.51387 | 35933 ft | 478 kts | 49° |
| 2026-04-29 12:23 | 46.56667 | -1.44258 | 35948 ft | 477 kts | 49° |
| 2026-04-29 12:23 | 46.61135 | -1.37131 | 35938 ft | 476 kts | 49° |
| 2026-04-29 12:24 | 46.65577 | -1.29986 | 35942 ft | 476 kts | 50° |
| 2026-04-29 12:24 | 46.70007 | -1.22826 | 35930 ft | 475 kts | 50° |
| 2026-04-29 12:25 | 46.74418 | -1.15683 | 35951 ft | 474 kts | 50° |
| 2026-04-29 12:26 | 46.81019 | -1.04964 | 35952 ft | 473 kts | 50° |
| 2026-04-29 12:26 | 46.85411 | -0.97808 | 35957 ft | 473 kts | 50° |
| 2026-04-29 12:27 | 46.89791 | -0.90653 | 35953 ft | 472 kts | 50° |
| 2026-04-29 12:27 | 46.94170 | -0.83480 | 35967 ft | 472 kts | 50° |
| 2026-04-29 12:28 | 46.98539 | -0.76304 | 35959 ft | 472 kts | 49° |
| 2026-04-29 12:28 | 47.02903 | -0.69119 | 35957 ft | 472 kts | 50° |
| 2026-04-29 12:29 | 47.07228 | -0.61978 | 35961 ft | 472 kts | 50° |
| 2026-04-29 12:29 | 47.11610 | -0.54723 | 35952 ft | 472 kts | 50° |
| 2026-04-29 12:30 | 47.15926 | -0.47558 | 35953 ft | 472 kts | 50° |
| 2026-04-29 12:30 | 47.20266 | -0.40334 | 35967 ft | 471 kts | 50° |
| 2026-04-29 12:31 | 47.24619 | -0.33132 | 35954 ft | 471 kts | 47° |
| 2026-04-29 12:31 | 47.29239 | -0.26321 | 35958 ft | 470 kts | 45° |
| 2026-04-29 12:32 | 47.33959 | -0.19656 | 35958 ft | 469 kts | 45° |
| 2026-04-29 12:32 | 47.38646 | -0.12971 | 35966 ft | 468 kts | 45° |
| 2026-04-29 12:33 | 47.43291 | -0.06259 | 35968 ft | 467 kts | 45° |
| 2026-04-29 12:33 | 47.47917 | 0.00471 | 35945 ft | 466 kts | 45° |
| 2026-04-29 12:34 | 47.52525 | 0.07192 | 35956 ft | 465 kts | 45° |
| 2026-04-29 12:34 | 47.57119 | 0.13908 | 35971 ft | 464 kts | 45° |
| 2026-04-29 12:35 | 47.61701 | 0.20623 | 35972 ft | 463 kts | 45° |
| 2026-04-29 12:35 | 47.66279 | 0.27349 | 35975 ft | 463 kts | 45° |
| 2026-04-29 12:36 | 47.70853 | 0.34087 | 35979 ft | 463 kts | 45° |
| 2026-04-29 12:36 | 47.75426 | 0.40839 | 35979 ft | 464 kts | 45° |
| 2026-04-29 12:37 | 47.79995 | 0.47605 | 35977 ft | 464 kts | 45° |
| 2026-04-29 12:37 | 47.84556 | 0.54377 | 35999 ft | 463 kts | 45° |
| 2026-04-29 12:38 | 47.89113 | 0.61161 | 35992 ft | 463 kts | 46° |
| 2026-04-29 12:38 | 47.93660 | 0.67948 | 35995 ft | 462 kts | 46° |
| 2026-04-29 12:39 | 47.97435 | 0.73594 | 35999 ft | 462 kts | 46° |
| 2026-04-29 12:39 | 48.01966 | 0.80391 | 36001 ft | 461 kts | 46° |
| 2026-04-29 12:40 | 48.06486 | 0.87188 | 35996 ft | 461 kts | 45° |
| 2026-04-29 12:40 | 48.10999 | 0.93993 | 36006 ft | 461 kts | 45° |
| 2026-04-29 12:41 | 48.15509 | 1.00811 | 36013 ft | 461 kts | 45° |
| 2026-04-29 12:41 | 48.20016 | 1.07642 | 36017 ft | 461 kts | 45° |
| 2026-04-29 12:42 | 48.24313 | 1.14776 | 36024 ft | 461 kts | 51° |
| 2026-04-29 12:42 | 48.28346 | 1.22262 | 36017 ft | 461 kts | 52° |
| 2026-04-29 12:43 | 48.32364 | 1.29772 | 36011 ft | 461 kts | 51° |
| 2026-04-29 12:43 | 48.36400 | 1.37252 | 36017 ft | 460 kts | 51° |
| 2026-04-29 12:44 | 48.40436 | 1.44710 | 36033 ft | 459 kts | 51° |
| 2026-04-29 12:44 | 48.44458 | 1.52158 | 36040 ft | 458 kts | 50° |
| 2026-04-29 12:45 | 48.48466 | 1.59603 | 36046 ft | 457 kts | 50° |
| 2026-04-29 12:45 | 48.52458 | 1.67042 | 36053 ft | 456 kts | 51° |
| 2026-04-29 12:46 | 48.56412 | 1.74429 | 36063 ft | 455 kts | 50° |
| 2026-04-29 12:46 | 48.60381 | 1.81867 | 36063 ft | 454 kts | 50° |
| 2026-04-29 12:47 | 48.64340 | 1.89306 | 36079 ft | 454 kts | 50° |
| 2026-04-29 12:47 | 48.68292 | 1.96750 | 36080 ft | 453 kts | 50° |
| 2026-04-29 12:48 | 48.72234 | 2.04200 | 36074 ft | 453 kts | 49° |
| 2026-04-29 12:48 | 48.75908 | 2.11961 | 36067 ft | 455 kts | 62° |
| 2026-04-29 12:49 | 48.78357 | 2.20797 | 36078 ft | 455 kts | 68° |
| 2026-04-29 12:49 | 48.80654 | 2.29740 | 36078 ft | 455 kts | 67° |
| 2026-04-29 12:50 | 48.82993 | 2.38664 | 36084 ft | 455 kts | 67° |
| 2026-04-29 12:50 | 48.85340 | 2.47526 | 36105 ft | 455 kts | 67° |
| 2026-04-29 12:51 | 48.87680 | 2.56382 | 36097 ft | 455 kts | 67° |
| 2026-04-29 12:51 | 48.90024 | 2.65302 | 36111 ft | 454 kts | 66° |
| 2026-04-29 12:52 | 48.92360 | 2.74216 | 36106 ft | 454 kts | 66° |
| 2026-04-29 12:52 | 48.94690 | 2.83156 | 36118 ft | 454 kts | 66° |
| 2026-04-29 12:53 | 48.97010 | 2.92093 | 36031 ft | 455 kts | 67° |
| 2026-04-29 12:53 | 48.98172 | 2.96581 | 35671 ft | 454 kts | 66° |
| 2026-04-29 12:53 | 48.99317 | 3.01017 | 35298 ft | 448 kts | 66° |
| 2026-04-29 12:53 | 49.00448 | 3.05412 | 34913 ft | 444 kts | 67° |
| 2026-04-29 12:54 | 49.01570 | 3.09772 | 34552 ft | 440 kts | 65° |
| 2026-04-29 12:54 | 49.02681 | 3.14099 | 34156 ft | 437 kts | 66° |
| 2026-04-29 12:54 | 49.03784 | 3.18389 | 33722 ft | 433 kts | 65° |
| 2026-04-29 12:54 | 49.04877 | 3.22650 | 33310 ft | 429 kts | 66° |
| 2026-04-29 12:55 | 49.05956 | 3.26872 | 32900 ft | 426 kts | 65° |
| 2026-04-29 12:55 | 49.07010 | 3.31002 | 32504 ft | 422 kts | 65° |
| 2026-04-29 12:55 | 49.08067 | 3.35154 | 32117 ft | 418 kts | 66° |
| 2026-04-29 12:55 | 49.09112 | 3.39272 | 31732 ft | 415 kts | 65° |
| 2026-04-29 12:56 | 49.10150 | 3.43360 | 31354 ft | 411 kts | 65° |
| 2026-04-29 12:56 | 49.11178 | 3.47417 | 30972 ft | 409 kts | 65° |
| 2026-04-29 12:56 | 49.12199 | 3.51448 | 30590 ft | 406 kts | 65° |
| 2026-04-29 12:56 | 49.13211 | 3.55459 | 30224 ft | 404 kts | 65° |
| 2026-04-29 12:57 | 49.14172 | 3.59489 | 29734 ft | 404 kts | 69° |
| 2026-04-29 12:57 | 49.14951 | 3.63605 | 29303 ft | 403 kts | 72° |
| 2026-04-29 12:57 | 49.15637 | 3.67730 | 28882 ft | 400 kts | 72° |
| 2026-04-29 12:57 | 49.16295 | 3.71850 | 28473 ft | 397 kts | 72° |
| 2026-04-29 12:58 | 49.16947 | 3.75936 | 28069 ft | 395 kts | 72° |
| 2026-04-29 12:58 | 49.17605 | 3.79989 | 27664 ft | 392 kts | 72° |
| 2026-04-29 12:58 | 49.18269 | 3.84023 | 27263 ft | 390 kts | 72° |
| 2026-04-29 12:58 | 49.18934 | 3.88028 | 26859 ft | 388 kts | 72° |
| 2026-04-29 12:59 | 49.19600 | 3.92017 | 26449 ft | 387 kts | 71° |
| 2026-04-29 12:59 | 49.20267 | 3.96000 | 26017 ft | 386 kts | 72° |
| 2026-04-29 12:59 | 49.20930 | 3.99968 | 25603 ft | 385 kts | 73° |
| 2026-04-29 12:59 | 49.21592 | 4.03936 | 25182 ft | 385 kts | 72° |
| 2026-04-29 13:00 | 49.22252 | 4.07901 | 24774 ft | 384 kts | 71° |
| 2026-04-29 13:00 | 49.22909 | 4.11859 | 24369 ft | 384 kts | 73° |
| 2026-04-29 13:00 | 49.23564 | 4.15816 | 23970 ft | 382 kts | 72° |
| 2026-04-29 13:00 | 49.24215 | 4.19745 | 23555 ft | 380 kts | 73° |
| 2026-04-29 13:01 | 49.24852 | 4.23621 | 23099 ft | 370 kts | 72° |
| 2026-04-29 13:01 | 49.25471 | 4.27381 | 22693 ft | 359 kts | 73° |
| 2026-04-29 13:01 | 49.26071 | 4.31040 | 22303 ft | 349 kts | 73° |
| 2026-04-29 13:01 | 49.26654 | 4.34599 | 21954 ft | 342 kts | 71° |
| 2026-04-29 13:02 | 49.27229 | 4.38126 | 21610 ft | 340 kts | 72° |
| 2026-04-29 13:02 | 49.27800 | 4.41625 | 21252 ft | 338 kts | 72° |
| 2026-04-29 13:02 | 49.28369 | 4.45106 | 20929 ft | 336 kts | 72° |
| 2026-04-29 13:02 | 49.28935 | 4.48569 | 20565 ft | 335 kts | 74° |
| 2026-04-29 13:03 | 49.29494 | 4.52016 | 20209 ft | 333 kts | 74° |
| 2026-04-29 13:03 | 49.30049 | 4.55445 | 19862 ft | 331 kts | 72° |
| 2026-04-29 13:03 | 49.30600 | 4.58858 | 19514 ft | 330 kts | 73° |
| 2026-04-29 13:03 | 49.31149 | 4.62264 | 19159 ft | 328 kts | 73° |
| 2026-04-29 13:04 | 49.31693 | 4.65651 | 18811 ft | 327 kts | 74° |
| 2026-04-29 13:04 | 49.32229 | 4.68985 | 18468 ft | 325 kts | 75° |
| 2026-04-29 13:04 | 49.32767 | 4.72352 | 18088 ft | 317 kts | 73° |
| 2026-04-29 13:04 | 49.33286 | 4.75598 | 17717 ft | 310 kts | 74° |
| 2026-04-29 13:05 | 49.33796 | 4.78791 | 17400 ft | 307 kts | 73° |
| 2026-04-29 13:05 | 49.34301 | 4.81957 | 17087 ft | 305 kts | 75° |
| 2026-04-29 13:05 | 49.34795 | 4.85065 | 16760 ft | 303 kts | 75° |
| 2026-04-29 13:05 | 49.35292 | 4.88197 | 16440 ft | 301 kts | 74° |
| 2026-04-29 13:06 | 49.35782 | 4.91308 | 16122 ft | 299 kts | 74° |
| 2026-04-29 13:06 | 49.36270 | 4.94393 | 15806 ft | 297 kts | 75° |
| 2026-04-29 13:06 | 49.36758 | 4.97469 | 15487 ft | 296 kts | 75° |
| 2026-04-29 13:06 | 49.37234 | 5.00488 | 15185 ft | 294 kts | 74° |
| 2026-04-29 13:07 | 49.37714 | 5.03538 | 14857 ft | 294 kts | 75° |
| 2026-04-29 13:07 | 49.38191 | 5.06577 | 14547 ft | 293 kts | 75° |
| 2026-04-29 13:07 | 49.38663 | 5.09605 | 14238 ft | 291 kts | 75° |
| 2026-04-29 13:07 | 49.39182 | 5.12609 | 13894 ft | 290 kts | 68° |
| 2026-04-29 13:08 | 49.40101 | 5.15376 | 13480 ft | 291 kts | 59° |
| 2026-04-29 13:08 | 49.41128 | 5.18045 | 13148 ft | 289 kts | 59° |
| 2026-04-29 13:08 | 49.42153 | 5.20690 | 12822 ft | 287 kts | 59° |
| 2026-04-29 13:08 | 49.43165 | 5.23324 | 12514 ft | 285 kts | 59° |
| 2026-04-29 13:09 | 49.44159 | 5.25933 | 12229 ft | 282 kts | 60° |
| 2026-04-29 13:09 | 49.45139 | 5.28526 | 11900 ft | 280 kts | 60° |
| 2026-04-29 13:09 | 49.46110 | 5.31108 | 11595 ft | 278 kts | 60° |
| 2026-04-29 13:09 | 49.47073 | 5.33677 | 11292 ft | 277 kts | 61° |
| 2026-04-29 13:10 | 49.48029 | 5.36235 | 10985 ft | 276 kts | 61° |
| 2026-04-29 13:10 | 49.48970 | 5.38757 | 10704 ft | 274 kts | 61° |
| 2026-04-29 13:10 | 49.49916 | 5.41296 | 10424 ft | 272 kts | 61° |
| 2026-04-29 13:10 | 49.50841 | 5.43784 | 10312 ft | 265 kts | 61° |
| 2026-04-29 13:11 | 49.51744 | 5.46213 | 10148 ft | 259 kts | 61° |
| 2026-04-29 13:11 | 49.52637 | 5.48616 | 9858 ft | 258 kts | 61° |
| 2026-04-29 13:11 | 49.53522 | 5.51004 | 9582 ft | 255 kts | 61° |
| 2026-04-29 13:11 | 49.54398 | 5.53365 | 9305 ft | 253 kts | 62° |
| 2026-04-29 13:12 | 49.55178 | 5.55757 | 9057 ft | 249 kts | 72° |
| 2026-04-29 13:12 | 49.55596 | 5.58330 | 8802 ft | 247 kts | 77° |
| 2026-04-29 13:12 | 49.55985 | 5.60889 | 8518 ft | 244 kts | 77° |
| 2026-04-29 13:12 | 49.56384 | 5.63425 | 8267 ft | 243 kts | 77° |
| 2026-04-29 13:13 | 49.56788 | 5.65952 | 8028 ft | 242 kts | 77° |
| 2026-04-29 13:13 | 49.57192 | 5.68472 | 7734 ft | 242 kts | 77° |
| 2026-04-29 13:13 | 49.57598 | 5.70980 | 7467 ft | 241 kts | 77° |
| 2026-04-29 13:13 | 49.57921 | 5.73487 | 7193 ft | 239 kts | 90° |
| 2026-04-29 13:14 | 49.57669 | 5.76013 | 6932 ft | 241 kts | 103° |
| 2026-04-29 13:14 | 49.57195 | 5.78501 | 6639 ft | 244 kts | 105° |
| 2026-04-29 13:14 | 49.56689 | 5.80996 | 6336 ft | 245 kts | 106° |
| 2026-04-29 13:14 | 49.56184 | 5.83500 | 6025 ft | 245 kts | 105° |
| 2026-04-29 13:15 | 49.55685 | 5.86013 | 5679 ft | 245 kts | 105° |
| 2026-04-29 13:15 | 49.55188 | 5.88529 | 5240 ft | 245 kts | 105° |
| 2026-04-29 13:15 | 49.54701 | 5.91004 | 4906 ft | 238 kts | 104° |
| 2026-04-29 13:15 | 49.54227 | 5.93403 | 4611 ft | 231 kts | 104° |
| 2026-04-29 13:16 | 49.53786 | 5.95747 | 4320 ft | 225 kts | 99° |
| 2026-04-29 13:16 | 49.53973 | 5.98055 | 4028 ft | 219 kts | 63° |
| 2026-04-29 13:16 | 49.54767 | 6.00016 | 3787 ft | 213 kts | 59° |
| 2026-04-29 13:16 | 49.55536 | 6.01942 | 3577 ft | 209 kts | 62° |
| 2026-04-29 13:17 | 49.56243 | 6.03832 | 3403 ft | 200 kts | 62° |
| 2026-04-29 13:17 | 49.56921 | 6.05675 | 3145 ft | 199 kts | 63° |
| 2026-04-29 13:17 | 49.57584 | 6.07465 | 2887 ft | 184 kts | 62° |
| 2026-04-29 13:17 | 49.58179 | 6.09076 | 2703 ft | 161 kts | 63° |
| 2026-04-29 13:18 | 49.58711 | 6.10522 | 2443 ft | 148 kts | 63° |
| 2026-04-29 13:18 | 49.59200 | 6.11845 | 2266 ft | 138 kts | 63° |
| 2026-04-29 13:18 | 49.59672 | 6.13125 | 2083 ft | 134 kts | 63° |
| 2026-04-29 13:18 | 49.60127 | 6.14364 | 1862 ft | 131 kts | 63° |
| 2026-04-29 13:19 | 49.60555 | 6.15550 | 1639 ft | 126 kts | 60° |
| 2026-04-29 13:19 | 49.61000 | 6.16721 | 1456 ft | 128 kts | 62° |
| 2026-04-29 13:19 | 49.61464 | 6.17977 | 1309 ft | 141 kts | 62° |
| 2026-04-29 13:19 | 49.61967 | 6.19331 | 1172 ft | 144 kts | 60° |
| 2026-04-29 13:20 | 49.62414 | 6.20534 | 1230 ft | 113 kts | 60° |
| 2026-04-29 13:20 | 49.62740 | 6.21414 | 1226 ft | 80 kts | 60° |
| 2026-04-29 13:20 | 49.62978 | 6.22052 | 1213 ft | 29 kts | 60° |
| 2026-04-29 13:20 | 49.63042 | 6.22130 | 1214 ft | 11 kts | 355° |
| 2026-04-29 13:21 | 49.63113 | 6.22077 | 1219 ft | 11 kts | 330° |
| 2026-04-29 13:21 | 49.63173 | 6.22002 | 1226 ft | 11 kts | 285° |
| 2026-04-29 13:21 | 49.63153 | 6.21888 | 1226 ft | 11 kts | 247° |
| 2026-04-29 13:21 | 49.63131 | 6.21812 | 1225 ft | 6 kts | 259° |
| 2026-04-29 13:22 | 49.63155 | 6.21763 | 1227 ft | 6 kts | 329° |
| 2026-04-29 13:22 | 49.63188 | 6.21734 | 1227 ft | 5 kts | 328° |
| 2026-04-29 13:22 | 49.63218 | 6.21706 | 1229 ft | 5 kts | 328° |
| 2026-04-29 13:22 | 49.63247 | 6.21674 | 1229 ft | 5 kts | 317° |
| 2026-04-29 13:23 | 49.63269 | 6.21628 | 1229 ft | 6 kts | 301° |
| 2026-04-29 13:23 | 49.63268 | 6.21576 | 1229 ft | 3 kts | 246° |
| 2026-04-29 13:23 | 49.63275 | 6.21544 | 1229 ft | 4 kts | 310° |
| 2026-04-29 13:23 | 49.63296 | 6.21520 | 1229 ft | 2 kts | 326° |
| 2026-04-29 13:24 | 49.63310 | 6.21507 | 1229 ft | 2 kts | 329° |
| 2026-04-29 13:24 | 49.63312 | 6.21505 | 1229 ft | 0 kts | 329° |